sensor_id;sensor_type;location;lat;lon;timestamp;temperature;humidity
18225;DHT22;9237;48.590;8.854;2024-01-06T00:02:08;3.30;99.90
18225;DHT22;9237;48.590;8.854;2024-01-06T00:04:35;3.30;99.90
18225;DHT22;9237;48.590;8.854;2024-01-06T00:07:02;3.30;99.90
18225;DHT22;9237;48.590;8.854;2024-01-06T00:09:29;3.30;99.90
18225;DHT22;9237;48.590;8.854;2024-01-06T00:11:57;3.30;99.90
18225;DHT22;9237;48.590;8.854;2024-01-06T00:14:24;3.20;99.90
18225;DHT22;9237;48.590;8.854;2024-01-06T00:16:51;3.20;99.90
18225;DHT22;9237;48.590;8.854;2024-01-06T00:19:17;3.30;99.90
18225;DHT22;9237;48.590;8.854;2024-01-06T00:21:44;3.30;99.90
18225;DHT22;9237;48.590;8.854;2024-01-06T00:24:11;3.30;99.90
18225;DHT22;9237;48.590;8.854;2024-01-06T00:26:38;3.30;99.90
18225;DHT22;9237;48.590;8.854;2024-01-06T00:29:06;3.30;99.90
18225;DHT22;9237;48.590;8.854;2024-01-06T00:31:32;3.30;99.90
18225;DHT22;9237;48.590;8.854;2024-01-06T00:33:59;3.20;99.90
18225;DHT22;9237;48.590;8.854;2024-01-06T00:36:26;3.20;99.90
18225;DHT22;9237;48.590;8.854;2024-01-06T00:38:53;3.20;99.90
18225;DHT22;9237;48.590;8.854;2024-01-06T00:41:20;3.20;99.90
18225;DHT22;9237;48.590;8.854;2024-01-06T00:43:46;3.20;99.90
18225;DHT22;9237;48.590;8.854;2024-01-06T00:46:14;3.20;99.90
18225;DHT22;9237;48.590;8.854;2024-01-06T00:48:41;3.20;99.90
18225;DHT22;9237;48.590;8.854;2024-01-06T00:51:08;3.10;99.90
18225;DHT22;9237;48.590;8.854;2024-01-06T00:53:35;3.10;99.90
18225;DHT22;9237;48.590;8.854;2024-01-06T00:56:02;3.10;99.90
18225;DHT22;9237;48.590;8.854;2024-01-06T00:58:29;3.10;99.90
18225;DHT22;9237;48.590;8.854;2024-01-06T01:00:55;3.10;99.90
18225;DHT22;9237;48.590;8.854;2024-01-06T01:03:23;3.20;99.90
18225;DHT22;9237;48.590;8.854;2024-01-06T01:05:50;3.20;99.90
18225;DHT22;9237;48.590;8.854;2024-01-06T01:08:17;3.20;99.90
18225;DHT22;9237;48.590;8.854;2024-01-06T01:10:44;3.20;99.90
18225;DHT22;9237;48.590;8.854;2024-01-06T01:13:11;3.30;99.90
18225;DHT22;9237;48.590;8.854;2024-01-06T01:15:37;3.20;99.90
18225;DHT22;9237;48.590;8.854;2024-01-06T01:18:04;3.20;99.90
18225;DHT22;9237;48.590;8.854;2024-01-06T01:20:32;3.20;99.90
18225;DHT22;9237;48.590;8.854;2024-01-06T01:22:59;3.30;99.90
18225;DHT22;9237;48.590;8.854;2024-01-06T01:25:26;3.30;99.90
18225;DHT22;9237;48.590;8.854;2024-01-06T01:27:53;3.30;99.90
18225;DHT22;9237;48.590;8.854;2024-01-06T01:30:20;3.20;99.90
18225;DHT22;9237;48.590;8.854;2024-01-06T01:32:46;3.20;99.90
18225;DHT22;9237;48.590;8.854;2024-01-06T01:35:13;3.20;99.90
18225;DHT22;9237;48.590;8.854;2024-01-06T01:37:41;3.20;99.90
18225;DHT22;9237;48.590;8.854;2024-01-06T01:40:09;3.20;99.90
18225;DHT22;9237;48.590;8.854;2024-01-06T01:42:36;3.20;99.90
18225;DHT22;9237;48.590;8.854;2024-01-06T01:45:04;3.20;99.90
18225;DHT22;9237;48.590;8.854;2024-01-06T01:47:31;3.30;99.90
18225;DHT22;9237;48.590;8.854;2024-01-06T01:49:57;3.20;99.90
18225;DHT22;9237;48.590;8.854;2024-01-06T01:52:24;3.20;99.90
18225;DHT22;9237;48.590;8.854;2024-01-06T01:54:53;3.30;99.90
18225;DHT22;9237;48.590;8.854;2024-01-06T01:57:20;3.30;99.90
18225;DHT22;9237;48.590;8.854;2024-01-06T01:59:50;3.40;99.90
18225;DHT22;9237;48.590;8.854;2024-01-06T02:02:18;3.40;99.90
18225;DHT22;9237;48.590;8.854;2024-01-06T02:04:45;3.50;99.90
18225;DHT22;9237;48.590;8.854;2024-01-06T02:07:12;3.50;99.90
18225;DHT22;9237;48.590;8.854;2024-01-06T02:09:39;3.60;99.90
18225;DHT22;9237;48.590;8.854;2024-01-06T02:12:07;3.50;99.90
18225;DHT22;9237;48.590;8.854;2024-01-06T02:14:34;3.60;99.90
18225;DHT22;9237;48.590;8.854;2024-01-06T02:17:00;3.50;99.90
18225;DHT22;9237;48.590;8.854;2024-01-06T02:19:27;3.60;99.90
18225;DHT22;9237;48.590;8.854;2024-01-06T02:21:55;3.70;99.90
18225;DHT22;9237;48.590;8.854;2024-01-06T02:24:22;3.80;99.90
18225;DHT22;9237;48.590;8.854;2024-01-06T02:26:49;3.90;99.90
18225;DHT22;9237;48.590;8.854;2024-01-06T02:29:16;3.80;99.90
18225;DHT22;9237;48.590;8.854;2024-01-06T02:31:42;3.70;99.90
18225;DHT22;9237;48.590;8.854;2024-01-06T02:34:09;3.70;99.90
18225;DHT22;9237;48.590;8.854;2024-01-06T02:36:36;3.70;99.90
18225;DHT22;9237;48.590;8.854;2024-01-06T02:39:04;3.80;99.90
18225;DHT22;9237;48.590;8.854;2024-01-06T02:41:31;3.80;99.90
18225;DHT22;9237;48.590;8.854;2024-01-06T02:43:58;3.80;99.90
18225;DHT22;9237;48.590;8.854;2024-01-06T02:46:28;3.90;99.90
18225;DHT22;9237;48.590;8.854;2024-01-06T02:48:54;3.90;99.90
18225;DHT22;9237;48.590;8.854;2024-01-06T02:51:21;3.90;99.90
18225;DHT22;9237;48.590;8.854;2024-01-06T02:53:48;3.80;99.90
18225;DHT22;9237;48.590;8.854;2024-01-06T02:56:16;3.70;99.90
18225;DHT22;9237;48.590;8.854;2024-01-06T02:58:43;3.80;99.90
18225;DHT22;9237;48.590;8.854;2024-01-06T03:01:11;3.90;99.90
18225;DHT22;9237;48.590;8.854;2024-01-06T03:03:38;3.90;99.90
18225;DHT22;9237;48.590;8.854;2024-01-06T03:06:05;3.90;99.90
18225;DHT22;9237;48.590;8.854;2024-01-06T03:08:32;3.90;99.90
18225;DHT22;9237;48.590;8.854;2024-01-06T03:11:00;4.00;99.90
18225;DHT22;9237;48.590;8.854;2024-01-06T03:13:29;3.90;99.90
18225;DHT22;9237;48.590;8.854;2024-01-06T03:15:55;3.90;99.90
18225;DHT22;9237;48.590;8.854;2024-01-06T03:18:22;3.90;99.90
18225;DHT22;9237;48.590;8.854;2024-01-06T03:20:49;4.00;99.90
18225;DHT22;9237;48.590;8.854;2024-01-06T03:23:15;3.80;99.90
18225;DHT22;9237;48.590;8.854;2024-01-06T03:25:42;3.80;99.90
18225;DHT22;9237;48.590;8.854;2024-01-06T03:28:09;3.80;99.90
18225;DHT22;9237;48.590;8.854;2024-01-06T03:30:37;3.70;99.90
18225;DHT22;9237;48.590;8.854;2024-01-06T03:33:04;3.80;99.90
18225;DHT22;9237;48.590;8.854;2024-01-06T03:35:31;3.80;99.90
18225;DHT22;9237;48.590;8.854;2024-01-06T03:37:57;3.70;99.90
18225;DHT22;9237;48.590;8.854;2024-01-06T03:40:24;3.60;99.90
18225;DHT22;9237;48.590;8.854;2024-01-06T03:42:51;3.60;99.90
18225;DHT22;9237;48.590;8.854;2024-01-06T03:45:19;3.60;99.90
18225;DHT22;9237;48.590;8.854;2024-01-06T03:47:47;3.60;99.90
18225;DHT22;9237;48.590;8.854;2024-01-06T03:50:14;3.70;99.90
18225;DHT22;9237;48.590;8.854;2024-01-06T03:52:41;3.60;99.90
18225;DHT22;9237;48.590;8.854;2024-01-06T03:55:08;3.60;99.90
18225;DHT22;9237;48.590;8.854;2024-01-06T03:57:35;3.60;99.90
18225;DHT22;9237;48.590;8.854;2024-01-06T04:00:02;3.50;99.90
18225;DHT22;9237;48.590;8.854;2024-01-06T04:02:28;3.40;99.90
18225;DHT22;9237;48.590;8.854;2024-01-06T04:04:57;3.30;99.90
18225;DHT22;9237;48.590;8.854;2024-01-06T04:07:23;3.30;99.90
18225;DHT22;9237;48.590;8.854;2024-01-06T04:09:50;3.20;99.90
18225;DHT22;9237;48.590;8.854;2024-01-06T04:12:17;3.30;99.90
18225;DHT22;9237;48.590;8.854;2024-01-06T04:14:44;3.30;99.90
18225;DHT22;9237;48.590;8.854;2024-01-06T04:17:11;3.20;99.90
18225;DHT22;9237;48.590;8.854;2024-01-06T04:19:38;3.20;99.90
18225;DHT22;9237;48.590;8.854;2024-01-06T04:22:06;3.20;99.90
18225;DHT22;9237;48.590;8.854;2024-01-06T04:24:32;3.10;99.90
18225;DHT22;9237;48.590;8.854;2024-01-06T04:27:03;3.10;99.90
18225;DHT22;9237;48.590;8.854;2024-01-06T04:29:29;3.10;99.90
18225;DHT22;9237;48.590;8.854;2024-01-06T04:31:56;3.20;99.90
18225;DHT22;9237;48.590;8.854;2024-01-06T04:34:23;3.10;99.90
18225;DHT22;9237;48.590;8.854;2024-01-06T04:36:50;3.10;99.90
18225;DHT22;9237;48.590;8.854;2024-01-06T04:39:18;3.10;99.90
18225;DHT22;9237;48.590;8.854;2024-01-06T04:41:44;3.20;99.90
18225;DHT22;9237;48.590;8.854;2024-01-06T04:44:11;3.20;99.90
18225;DHT22;9237;48.590;8.854;2024-01-06T04:46:38;3.20;99.90
18225;DHT22;9237;48.590;8.854;2024-01-06T04:49:05;3.30;99.90
18225;DHT22;9237;48.590;8.854;2024-01-06T04:51:31;3.30;99.90
18225;DHT22;9237;48.590;8.854;2024-01-06T04:53:58;3.40;99.90
18225;DHT22;9237;48.590;8.854;2024-01-06T04:56:26;3.40;99.90
18225;DHT22;9237;48.590;8.854;2024-01-06T04:58:53;3.50;99.90
18225;DHT22;9237;48.590;8.854;2024-01-06T05:01:20;3.50;99.90
18225;DHT22;9237;48.590;8.854;2024-01-06T05:03:47;3.40;99.90
18225;DHT22;9237;48.590;8.854;2024-01-06T05:06:13;3.40;99.90
18225;DHT22;9237;48.590;8.854;2024-01-06T05:08:40;3.30;99.90
18225;DHT22;9237;48.590;8.854;2024-01-06T05:11:10;3.30;99.90
18225;DHT22;9237;48.590;8.854;2024-01-06T05:13:38;3.20;99.90
18225;DHT22;9237;48.590;8.854;2024-01-06T05:16:06;3.20;99.90
18225;DHT22;9237;48.590;8.854;2024-01-06T05:18:33;3.20;99.90
18225;DHT22;9237;48.590;8.854;2024-01-06T05:21:01;3.20;99.90
18225;DHT22;9237;48.590;8.854;2024-01-06T05:23:28;3.10;99.90
18225;DHT22;9237;48.590;8.854;2024-01-06T05:25:55;3.10;99.90
18225;DHT22;9237;48.590;8.854;2024-01-06T05:28:22;3.10;99.90
18225;DHT22;9237;48.590;8.854;2024-01-06T05:30:50;3.10;99.90
18225;DHT22;9237;48.590;8.854;2024-01-06T05:33:17;3.20;99.90
18225;DHT22;9237;48.590;8.854;2024-01-06T05:35:43;3.20;99.90
18225;DHT22;9237;48.590;8.854;2024-01-06T05:38:10;3.20;99.90
18225;DHT22;9237;48.590;8.854;2024-01-06T05:40:37;3.20;99.90
18225;DHT22;9237;48.590;8.854;2024-01-06T05:43:04;3.20;99.90
18225;DHT22;9237;48.590;8.854;2024-01-06T05:45:31;3.20;99.90
18225;DHT22;9237;48.590;8.854;2024-01-06T05:47:59;3.20;99.90
18225;DHT22;9237;48.590;8.854;2024-01-06T05:50:25;3.20;99.90
18225;DHT22;9237;48.590;8.854;2024-01-06T05:52:52;3.20;99.90
18225;DHT22;9237;48.590;8.854;2024-01-06T05:55:19;3.20;99.90
18225;DHT22;9237;48.590;8.854;2024-01-06T05:57:46;3.20;99.90
18225;DHT22;9237;48.590;8.854;2024-01-06T06:00:13;3.10;99.90
18225;DHT22;9237;48.590;8.854;2024-01-06T06:02:40;3.20;99.90
18225;DHT22;9237;48.590;8.854;2024-01-06T06:05:08;3.10;99.90
18225;DHT22;9237;48.590;8.854;2024-01-06T06:07:35;3.10;99.90
18225;DHT22;9237;48.590;8.854;2024-01-06T06:10:06;3.10;99.90
18225;DHT22;9237;48.590;8.854;2024-01-06T06:12:33;3.10;99.90
18225;DHT22;9237;48.590;8.854;2024-01-06T06:15:00;3.10;99.90
18225;DHT22;9237;48.590;8.854;2024-01-06T06:17:27;3.20;99.90
18225;DHT22;9237;48.590;8.854;2024-01-06T06:19:54;3.10;99.90
18225;DHT22;9237;48.590;8.854;2024-01-06T06:22:23;3.20;99.90
18225;DHT22;9237;48.590;8.854;2024-01-06T06:24:52;3.20;99.90
18225;DHT22;9237;48.590;8.854;2024-01-06T06:27:18;3.20;99.90
18225;DHT22;9237;48.590;8.854;2024-01-06T06:29:45;3.20;99.90
18225;DHT22;9237;48.590;8.854;2024-01-06T06:32:12;3.30;99.90
18225;DHT22;9237;48.590;8.854;2024-01-06T06:34:39;3.40;99.90
18225;DHT22;9237;48.590;8.854;2024-01-06T06:37:06;3.40;99.90
18225;DHT22;9237;48.590;8.854;2024-01-06T06:39:34;3.50;99.90
18225;DHT22;9237;48.590;8.854;2024-01-06T06:42:01;3.50;99.90
18225;DHT22;9237;48.590;8.854;2024-01-06T06:44:28;3.50;99.90
18225;DHT22;9237;48.590;8.854;2024-01-06T06:46:55;3.50;99.90
18225;DHT22;9237;48.590;8.854;2024-01-06T06:49:32;3.50;99.90
18225;DHT22;9237;48.590;8.854;2024-01-06T06:51:58;3.60;99.90
18225;DHT22;9237;48.590;8.854;2024-01-06T06:54:25;3.50;99.90
18225;DHT22;9237;48.590;8.854;2024-01-06T06:56:53;3.60;99.90
18225;DHT22;9237;48.590;8.854;2024-01-06T06:59:20;3.60;99.90
18225;DHT22;9237;48.590;8.854;2024-01-06T07:01:46;3.60;99.90
18225;DHT22;9237;48.590;8.854;2024-01-06T07:04:14;3.60;99.90
18225;DHT22;9237;48.590;8.854;2024-01-06T07:06:40;3.60;99.90
18225;DHT22;9237;48.590;8.854;2024-01-06T07:09:07;3.60;99.90
18225;DHT22;9237;48.590;8.854;2024-01-06T07:11:34;3.60;99.90
18225;DHT22;9237;48.590;8.854;2024-01-06T07:14:02;3.60;99.90
18225;DHT22;9237;48.590;8.854;2024-01-06T07:16:29;3.70;99.90
18225;DHT22;9237;48.590;8.854;2024-01-06T07:18:55;3.70;99.90
18225;DHT22;9237;48.590;8.854;2024-01-06T07:21:22;3.70;99.90
18225;DHT22;9237;48.590;8.854;2024-01-06T07:23:49;3.70;99.90
18225;DHT22;9237;48.590;8.854;2024-01-06T07:26:16;3.80;99.90
18225;DHT22;9237;48.590;8.854;2024-01-06T07:28:43;4.00;99.90
18225;DHT22;9237;48.590;8.854;2024-01-06T07:31:11;4.00;99.90
18225;DHT22;9237;48.590;8.854;2024-01-06T07:33:38;4.00;99.90
18225;DHT22;9237;48.590;8.854;2024-01-06T07:36:05;4.00;99.90
18225;DHT22;9237;48.590;8.854;2024-01-06T07:38:32;4.00;99.90
18225;DHT22;9237;48.590;8.854;2024-01-06T07:40:59;4.00;99.90
18225;DHT22;9237;48.590;8.854;2024-01-06T07:43:26;4.00;99.90
18225;DHT22;9237;48.590;8.854;2024-01-06T07:45:53;4.00;99.90
18225;DHT22;9237;48.590;8.854;2024-01-06T07:48:21;4.00;99.90
18225;DHT22;9237;48.590;8.854;2024-01-06T07:50:48;3.90;99.90
18225;DHT22;9237;48.590;8.854;2024-01-06T07:53:14;3.90;99.90
18225;DHT22;9237;48.590;8.854;2024-01-06T07:55:41;4.00;99.90
18225;DHT22;9237;48.590;8.854;2024-01-06T07:58:08;4.10;99.90
18225;DHT22;9237;48.590;8.854;2024-01-06T08:00:35;4.10;99.90
18225;DHT22;9237;48.590;8.854;2024-01-06T08:03:01;4.20;99.90
18225;DHT22;9237;48.590;8.854;2024-01-06T08:05:32;4.10;99.90
18225;DHT22;9237;48.590;8.854;2024-01-06T08:07:59;4.10;99.90
18225;DHT22;9237;48.590;8.854;2024-01-06T08:10:26;4.00;99.90
18225;DHT22;9237;48.590;8.854;2024-01-06T08:12:52;4.10;99.90
18225;DHT22;9237;48.590;8.854;2024-01-06T08:15:19;4.00;99.90
18225;DHT22;9237;48.590;8.854;2024-01-06T08:17:46;4.10;99.90
18225;DHT22;9237;48.590;8.854;2024-01-06T08:20:13;4.10;99.90
18225;DHT22;9237;48.590;8.854;2024-01-06T08:22:41;4.20;99.90
18225;DHT22;9237;48.590;8.854;2024-01-06T08:25:08;4.20;99.90
18225;DHT22;9237;48.590;8.854;2024-01-06T08:27:35;4.30;99.90
18225;DHT22;9237;48.590;8.854;2024-01-06T08:30:01;4.40;99.90
18225;DHT22;9237;48.590;8.854;2024-01-06T08:32:28;4.40;99.90
18225;DHT22;9237;48.590;8.854;2024-01-06T08:34:55;4.40;99.90
18225;DHT22;9237;48.590;8.854;2024-01-06T08:37:22;4.50;99.90
18225;DHT22;9237;48.590;8.854;2024-01-06T08:39:50;4.50;99.90
18225;DHT22;9237;48.590;8.854;2024-01-06T08:42:16;4.50;99.90
18225;DHT22;9237;48.590;8.854;2024-01-06T08:44:45;4.60;99.90
18225;DHT22;9237;48.590;8.854;2024-01-06T08:47:13;4.70;99.90
18225;DHT22;9237;48.590;8.854;2024-01-06T08:49:39;4.70;99.90
18225;DHT22;9237;48.590;8.854;2024-01-06T08:52:06;4.70;99.90
18225;DHT22;9237;48.590;8.854;2024-01-06T08:54:33;4.80;99.90
18225;DHT22;9237;48.590;8.854;2024-01-06T08:57:01;4.80;99.90
18225;DHT22;9237;48.590;8.854;2024-01-06T08:59:28;4.80;99.90
18225;DHT22;9237;48.590;8.854;2024-01-06T09:01:55;4.90;99.90
18225;DHT22;9237;48.590;8.854;2024-01-06T09:04:22;5.00;99.90
18225;DHT22;9237;48.590;8.854;2024-01-06T09:06:49;5.00;99.90
18225;DHT22;9237;48.590;8.854;2024-01-06T09:09:16;5.10;99.90
18225;DHT22;9237;48.590;8.854;2024-01-06T09:11:43;5.10;99.90
18225;DHT22;9237;48.590;8.854;2024-01-06T09:14:13;5.10;99.90
18225;DHT22;9237;48.590;8.854;2024-01-06T09:16:39;5.10;99.90
18225;DHT22;9237;48.590;8.854;2024-01-06T09:19:06;5.20;99.90
18225;DHT22;9237;48.590;8.854;2024-01-06T09:21:33;5.30;99.90
18225;DHT22;9237;48.590;8.854;2024-01-06T09:24:01;5.40;99.90
18225;DHT22;9237;48.590;8.854;2024-01-06T09:26:31;5.50;99.90
18225;DHT22;9237;48.590;8.854;2024-01-06T09:28:58;5.50;99.90
18225;DHT22;9237;48.590;8.854;2024-01-06T09:31:26;5.60;99.90
18225;DHT22;9237;48.590;8.854;2024-01-06T09:33:53;5.60;99.90
18225;DHT22;9237;48.590;8.854;2024-01-06T09:36:20;5.70;99.90
18225;DHT22;9237;48.590;8.854;2024-01-06T09:38:46;5.70;99.90
18225;DHT22;9237;48.590;8.854;2024-01-06T09:41:13;5.90;99.90
18225;DHT22;9237;48.590;8.854;2024-01-06T09:43:40;5.90;99.90
18225;DHT22;9237;48.590;8.854;2024-01-06T09:46:10;5.90;99.90
18225;DHT22;9237;48.590;8.854;2024-01-06T09:48:43;5.80;99.90
18225;DHT22;9237;48.590;8.854;2024-01-06T09:51:12;5.80;99.90
18225;DHT22;9237;48.590;8.854;2024-01-06T09:53:48;5.80;99.90
18225;DHT22;9237;48.590;8.854;2024-01-06T09:56:16;5.80;99.90
18225;DHT22;9237;48.590;8.854;2024-01-06T09:58:43;5.80;99.90
18225;DHT22;9237;48.590;8.854;2024-01-06T10:01:11;5.80;99.90
18225;DHT22;9237;48.590;8.854;2024-01-06T10:03:38;5.80;99.90
18225;DHT22;9237;48.590;8.854;2024-01-06T10:06:06;5.80;99.90
18225;DHT22;9237;48.590;8.854;2024-01-06T10:08:35;5.80;99.90
18225;DHT22;9237;48.590;8.854;2024-01-06T10:11:02;5.70;99.90
18225;DHT22;9237;48.590;8.854;2024-01-06T10:13:29;5.70;99.90
18225;DHT22;9237;48.590;8.854;2024-01-06T10:15:56;5.70;99.90
18225;DHT22;9237;48.590;8.854;2024-01-06T10:18:24;5.80;99.90
18225;DHT22;9237;48.590;8.854;2024-01-06T10:20:52;5.80;99.90
18225;DHT22;9237;48.590;8.854;2024-01-06T10:23:22;5.80;99.90
18225;DHT22;9237;48.590;8.854;2024-01-06T10:25:51;5.80;99.90
18225;DHT22;9237;48.590;8.854;2024-01-06T10:28:18;5.80;99.90
18225;DHT22;9237;48.590;8.854;2024-01-06T10:30:45;5.90;99.90
18225;DHT22;9237;48.590;8.854;2024-01-06T10:33:12;5.80;99.90
18225;DHT22;9237;48.590;8.854;2024-01-06T10:35:39;5.80;99.90
18225;DHT22;9237;48.590;8.854;2024-01-06T10:38:07;5.80;99.90
18225;DHT22;9237;48.590;8.854;2024-01-06T10:40:35;5.80;99.90
18225;DHT22;9237;48.590;8.854;2024-01-06T10:43:03;5.90;99.90
18225;DHT22;9237;48.590;8.854;2024-01-06T10:45:30;5.90;99.90
18225;DHT22;9237;48.590;8.854;2024-01-06T10:47:57;5.80;99.90
18225;DHT22;9237;48.590;8.854;2024-01-06T10:50:24;5.80;99.90
18225;DHT22;9237;48.590;8.854;2024-01-06T10:52:52;5.80;99.90
18225;DHT22;9237;48.590;8.854;2024-01-06T10:55:20;5.80;99.90
18225;DHT22;9237;48.590;8.854;2024-01-06T10:57:50;5.70;99.90
18225;DHT22;9237;48.590;8.854;2024-01-06T11:00:18;5.80;99.90
18225;DHT22;9237;48.590;8.854;2024-01-06T11:02:46;5.80;99.90
18225;DHT22;9237;48.590;8.854;2024-01-06T11:05:14;5.90;99.90
18225;DHT22;9237;48.590;8.854;2024-01-06T11:07:41;5.90;99.90
18225;DHT22;9237;48.590;8.854;2024-01-06T11:10:13;6.00;99.90
18225;DHT22;9237;48.590;8.854;2024-01-06T11:12:42;6.00;99.90
18225;DHT22;9237;48.590;8.854;2024-01-06T11:15:10;6.10;99.90
18225;DHT22;9237;48.590;8.854;2024-01-06T11:17:52;6.20;99.90
18225;DHT22;9237;48.590;8.854;2024-01-06T11:20:21;6.20;99.90
18225;DHT22;9237;48.590;8.854;2024-01-06T11:22:48;6.10;99.90
18225;DHT22;9237;48.590;8.854;2024-01-06T11:25:16;6.10;99.90
18225;DHT22;9237;48.590;8.854;2024-01-06T11:27:45;6.00;99.90
18225;DHT22;9237;48.590;8.854;2024-01-06T11:30:21;6.10;99.90
18225;DHT22;9237;48.590;8.854;2024-01-06T11:32:49;6.00;99.90
18225;DHT22;9237;48.590;8.854;2024-01-06T11:35:18;6.00;99.90
18225;DHT22;9237;48.590;8.854;2024-01-06T11:37:52;6.00;99.90
18225;DHT22;9237;48.590;8.854;2024-01-06T11:40:31;6.00;99.90
18225;DHT22;9237;48.590;8.854;2024-01-06T11:43:04;6.10;99.90
18225;DHT22;9237;48.590;8.854;2024-01-06T11:45:33;6.30;99.90
18225;DHT22;9237;48.590;8.854;2024-01-06T11:48:02;6.30;99.90
18225;DHT22;9237;48.590;8.854;2024-01-06T11:50:29;6.30;99.90
18225;DHT22;9237;48.590;8.854;2024-01-06T11:52:56;6.30;99.90
18225;DHT22;9237;48.590;8.854;2024-01-06T11:55:25;6.30;99.90
18225;DHT22;9237;48.590;8.854;2024-01-06T11:57:54;6.20;99.90
18225;DHT22;9237;48.590;8.854;2024-01-06T12:00:21;6.20;99.90
18225;DHT22;9237;48.590;8.854;2024-01-06T12:02:49;6.30;99.90
18225;DHT22;9237;48.590;8.854;2024-01-06T12:05:21;6.40;99.90
18225;DHT22;9237;48.590;8.854;2024-01-06T12:07:54;6.40;99.90
18225;DHT22;9237;48.590;8.854;2024-01-06T12:10:22;6.40;99.90
18225;DHT22;9237;48.590;8.854;2024-01-06T12:12:59;6.40;99.90
18225;DHT22;9237;48.590;8.854;2024-01-06T12:15:26;6.50;99.90
18225;DHT22;9237;48.590;8.854;2024-01-06T12:17:55;6.50;99.90
18225;DHT22;9237;48.590;8.854;2024-01-06T12:20:21;6.50;99.90
18225;DHT22;9237;48.590;8.854;2024-01-06T12:22:49;6.50;99.90
18225;DHT22;9237;48.590;8.854;2024-01-06T12:25:16;6.70;99.90
18225;DHT22;9237;48.590;8.854;2024-01-06T12:27:44;6.70;99.90
18225;DHT22;9237;48.590;8.854;2024-01-06T12:30:14;6.60;99.90
18225;DHT22;9237;48.590;8.854;2024-01-06T12:32:44;6.60;99.90
18225;DHT22;9237;48.590;8.854;2024-01-06T12:35:12;6.70;99.90
18225;DHT22;9237;48.590;8.854;2024-01-06T12:37:41;6.70;99.90
18225;DHT22;9237;48.590;8.854;2024-01-06T12:40:09;6.80;99.90
18225;DHT22;9237;48.590;8.854;2024-01-06T12:42:36;6.80;99.90
18225;DHT22;9237;48.590;8.854;2024-01-06T12:45:04;6.70;99.90
18225;DHT22;9237;48.590;8.854;2024-01-06T12:47:31;6.80;99.90
18225;DHT22;9237;48.590;8.854;2024-01-06T12:49:58;6.80;99.90
18225;DHT22;9237;48.590;8.854;2024-01-06T12:52:26;6.80;99.90
18225;DHT22;9237;48.590;8.854;2024-01-06T12:54:52;6.80;99.90
18225;DHT22;9237;48.590;8.854;2024-01-06T12:57:19;6.60;99.90
18225;DHT22;9237;48.590;8.854;2024-01-06T12:59:46;6.50;99.90
18225;DHT22;9237;48.590;8.854;2024-01-06T13:02:13;6.60;99.90
18225;DHT22;9237;48.590;8.854;2024-01-06T13:04:39;6.70;99.90
18225;DHT22;9237;48.590;8.854;2024-01-06T13:07:06;6.50;99.90
18225;DHT22;9237;48.590;8.854;2024-01-06T13:09:35;6.60;99.90
18225;DHT22;9237;48.590;8.854;2024-01-06T13:12:02;6.60;99.90
18225;DHT22;9237;48.590;8.854;2024-01-06T13:14:29;6.60;99.90
18225;DHT22;9237;48.590;8.854;2024-01-06T13:16:57;6.60;99.90
18225;DHT22;9237;48.590;8.854;2024-01-06T13:21:51;6.50;99.90
18225;DHT22;9237;48.590;8.854;2024-01-06T13:24:18;6.50;99.90
18225;DHT22;9237;48.590;8.854;2024-01-06T13:26:47;6.50;99.90
18225;DHT22;9237;48.590;8.854;2024-01-06T13:29:14;6.50;99.90
18225;DHT22;9237;48.590;8.854;2024-01-06T13:31:41;6.50;99.90
18225;DHT22;9237;48.590;8.854;2024-01-06T13:34:07;6.40;99.90
18225;DHT22;9237;48.590;8.854;2024-01-06T13:36:34;6.20;99.90
18225;DHT22;9237;48.590;8.854;2024-01-06T13:39:01;6.20;99.90
18225;DHT22;9237;48.590;8.854;2024-01-06T13:41:29;6.10;99.90
18225;DHT22;9237;48.590;8.854;2024-01-06T13:43:58;6.00;99.90
18225;DHT22;9237;48.590;8.854;2024-01-06T13:46:24;6.10;99.90
18225;DHT22;9237;48.590;8.854;2024-01-06T13:48:51;6.00;99.90
18225;DHT22;9237;48.590;8.854;2024-01-06T13:51:18;6.10;99.90
18225;DHT22;9237;48.590;8.854;2024-01-06T13:53:45;6.10;99.90
18225;DHT22;9237;48.590;8.854;2024-01-06T13:56:12;6.00;99.90
18225;DHT22;9237;48.590;8.854;2024-01-06T13:58:38;6.00;99.90
18225;DHT22;9237;48.590;8.854;2024-01-06T14:01:06;6.00;99.90
18225;DHT22;9237;48.590;8.854;2024-01-06T14:03:36;5.90;99.90
18225;DHT22;9237;48.590;8.854;2024-01-06T14:06:03;5.80;99.90
18225;DHT22;9237;48.590;8.854;2024-01-06T14:08:31;5.80;99.90
18225;DHT22;9237;48.590;8.854;2024-01-06T14:10:58;5.80;99.90
18225;DHT22;9237;48.590;8.854;2024-01-06T14:13:25;5.70;99.90
18225;DHT22;9237;48.590;8.854;2024-01-06T14:15:52;5.70;99.90
18225;DHT22;9237;48.590;8.854;2024-01-06T14:18:22;5.70;99.90
18225;DHT22;9237;48.590;8.854;2024-01-06T14:20:49;5.70;99.90
18225;DHT22;9237;48.590;8.854;2024-01-06T14:23:16;5.70;99.90
18225;DHT22;9237;48.590;8.854;2024-01-06T14:25:43;5.60;99.90
18225;DHT22;9237;48.590;8.854;2024-01-06T14:28:10;5.60;99.90
18225;DHT22;9237;48.590;8.854;2024-01-06T14:30:37;5.50;99.90
18225;DHT22;9237;48.590;8.854;2024-01-06T14:33:04;5.60;99.90
18225;DHT22;9237;48.590;8.854;2024-01-06T14:35:32;5.50;99.90
18225;DHT22;9237;48.590;8.854;2024-01-06T14:37:59;5.50;99.90
18225;DHT22;9237;48.590;8.854;2024-01-06T14:40:26;5.60;99.90
18225;DHT22;9237;48.590;8.854;2024-01-06T14:42:52;5.50;99.90
18225;DHT22;9237;48.590;8.854;2024-01-06T14:45:19;5.60;99.90
18225;DHT22;9237;48.590;8.854;2024-01-06T14:47:47;5.60;99.90
18225;DHT22;9237;48.590;8.854;2024-01-06T14:50:16;5.50;99.90
18225;DHT22;9237;48.590;8.854;2024-01-06T14:52:44;5.50;99.90
18225;DHT22;9237;48.590;8.854;2024-01-06T14:55:11;5.50;99.90
18225;DHT22;9237;48.590;8.854;2024-01-06T14:57:38;5.50;99.90
18225;DHT22;9237;48.590;8.854;2024-01-06T15:00:05;5.50;99.90
18225;DHT22;9237;48.590;8.854;2024-01-06T15:02:35;5.40;99.90
18225;DHT22;9237;48.590;8.854;2024-01-06T15:05:03;5.40;99.90
18225;DHT22;9237;48.590;8.854;2024-01-06T15:07:31;5.50;99.90
18225;DHT22;9237;48.590;8.854;2024-01-06T15:09:59;5.50;99.90
18225;DHT22;9237;48.590;8.854;2024-01-06T15:12:26;5.50;99.90
18225;DHT22;9237;48.590;8.854;2024-01-06T15:14:53;5.40;99.90
18225;DHT22;9237;48.590;8.854;2024-01-06T15:17:20;5.50;99.90
18225;DHT22;9237;48.590;8.854;2024-01-06T15:19:47;5.50;99.90
18225;DHT22;9237;48.590;8.854;2024-01-06T15:22:14;5.40;99.90
18225;DHT22;9237;48.590;8.854;2024-01-06T15:24:42;5.30;99.90
18225;DHT22;9237;48.590;8.854;2024-01-06T15:27:11;5.30;99.90
18225;DHT22;9237;48.590;8.854;2024-01-06T15:29:38;5.30;99.90
18225;DHT22;9237;48.590;8.854;2024-01-06T15:32:05;5.30;99.90
18225;DHT22;9237;48.590;8.854;2024-01-06T15:34:33;5.30;99.90
18225;DHT22;9237;48.590;8.854;2024-01-06T15:37:00;5.20;99.90
18225;DHT22;9237;48.590;8.854;2024-01-06T15:39:26;5.20;99.90
18225;DHT22;9237;48.590;8.854;2024-01-06T15:41:53;5.20;99.90
18225;DHT22;9237;48.590;8.854;2024-01-06T15:44:21;5.30;99.90
18225;DHT22;9237;48.590;8.854;2024-01-06T15:46:48;5.20;99.90
18225;DHT22;9237;48.590;8.854;2024-01-06T15:49:14;5.20;99.90
18225;DHT22;9237;48.590;8.854;2024-01-06T15:51:42;5.20;99.90
18225;DHT22;9237;48.590;8.854;2024-01-06T15:54:08;5.10;99.90
18225;DHT22;9237;48.590;8.854;2024-01-06T15:56:36;5.00;99.90
18225;DHT22;9237;48.590;8.854;2024-01-06T15:59:02;5.00;99.90
18225;DHT22;9237;48.590;8.854;2024-01-06T16:01:30;5.00;99.90
18225;DHT22;9237;48.590;8.854;2024-01-06T16:03:57;5.00;99.90
18225;DHT22;9237;48.590;8.854;2024-01-06T16:06:24;4.90;99.90